sensor_id;sensor_type;location;lat;lon;timestamp;pressure;altitude;pressure_sealevel;temperature;humidity
10127;BME280;13080;42.608;23.362;2023-05-19T00:00:53;153374.63;;;8.99;100.00
10127;BME280;13080;42.608;23.362;2023-05-19T00:03:20;153362.94;;;8.94;100.00
10127;BME280;13080;42.608;23.362;2023-05-19T00:05:47;153370.75;;;8.97;100.00
10127;BME280;13080;42.608;23.362;2023-05-19T00:08:17;153366.84;;;8.95;100.00
10127;BME280;13080;42.608;23.362;2023-05-19T00:10:45;153372.03;;;8.98;100.00
10127;BME280;13080;42.608;23.362;2023-05-19T00:13:12;153369.41;;;8.97;100.00
10127;BME280;13080;42.608;23.362;2023-05-19T00:15:39;153368.13;;;8.96;100.00
10127;BME280;13080;42.608;23.362;2023-05-19T00:18:06;153366.84;;;8.95;100.00
10127;BME280;13080;42.608;23.362;2023-05-19T00:20:34;153357.75;;;8.92;100.00
10127;BME280;13080;42.608;23.362;2023-05-19T00:23:02;153359.09;;;8.92;100.00
10127;BME280;13080;42.608;23.362;2023-05-19T00:25:30;153360.38;;;8.93;100.00
10127;BME280;13080;42.608;23.362;2023-05-19T00:27:57;153366.84;;;8.95;100.00
10127;BME280;13080;42.608;23.362;2023-05-19T00:30:24;153370.75;;;8.97;100.00
10127;BME280;13080;42.608;23.362;2023-05-19T00:32:51;153372.03;;;8.98;100.00
10127;BME280;13080;42.608;23.362;2023-05-19T00:35:18;153360.38;;;8.93;100.00
10127;BME280;13080;42.608;23.362;2023-05-19T00:37:46;153346.06;;;8.87;100.00
10127;BME280;13080;42.608;23.362;2023-05-19T00:40:13;153338.31;;;8.84;100.00
10127;BME280;13080;42.608;23.362;2023-05-19T00:42:41;153340.88;;;8.85;100.00
10127;BME280;13080;42.608;23.362;2023-05-19T00:45:08;153346.06;;;8.87;100.00
10127;BME280;13080;42.608;23.362;2023-05-19T00:47:35;153356.47;;;8.91;100.00
10127;BME280;13080;42.608;23.362;2023-05-19T00:50:02;153365.56;;;8.95;100.00
10127;BME280;13080;42.608;23.362;2023-05-19T00:52:29;153356.47;;;8.91;100.00
10127;BME280;13080;42.608;23.362;2023-05-19T00:54:56;153344.78;;;8.87;100.00
10127;BME280;13080;42.608;23.362;2023-05-19T00:57:23;153334.41;;;8.83;100.00
10127;BME280;13080;42.608;23.362;2023-05-19T00:59:52;153329.22;;;8.81;100.00
10127;BME280;13080;42.608;23.362;2023-05-19T01:02:19;153327.94;;;8.80;100.00
10127;BME280;13080;42.608;23.362;2023-05-19T01:04:46;153324.03;;;8.79;100.00
10127;BME280;13080;42.608;23.362;2023-05-19T01:07:14;153324.03;;;8.79;100.00
10127;BME280;13080;42.608;23.362;2023-05-19T01:09:40;153333.13;;;8.82;100.00
10127;BME280;13080;42.608;23.362;2023-05-19T01:12:07;153327.94;;;8.80;100.00
10127;BME280;13080;42.608;23.362;2023-05-19T01:14:34;153343.50;;;8.86;100.00
10127;BME280;13080;42.608;23.362;2023-05-19T01:17:06;153333.13;;;8.82;100.00
10127;BME280;13080;42.608;23.362;2023-05-19T01:19:49;153346.06;;;8.87;100.00
10127;BME280;13080;42.608;23.362;2023-05-19T01:22:35;153333.13;;;8.82;100.00
10127;BME280;13080;42.608;23.362;2023-05-19T01:31:14;153299.41;;;8.69;100.00
10127;BME280;13080;42.608;23.362;2023-05-19T01:33:42;153291.63;;;8.66;100.00
10127;BME280;13080;42.608;23.362;2023-05-19T01:36:10;153292.91;;;8.66;100.00
10127;BME280;13080;42.608;23.362;2023-05-19T01:38:37;153278.63;;;8.61;100.00
10127;BME280;13080;42.608;23.362;2023-05-19T01:41:05;153269.59;;;8.57;100.00
10127;BME280;13080;42.608;23.362;2023-05-19T01:43:33;153270.88;;;8.58;100.00
10127;BME280;13080;42.608;23.362;2023-05-19T01:46:02;153247.53;;;8.48;100.00
10127;BME280;13080;42.608;23.362;2023-05-19T01:48:30;153250.09;;;8.49;100.00
10127;BME280;13080;42.608;23.362;2023-05-19T01:50:58;153242.34;;;8.46;100.00
10127;BME280;13080;42.608;23.362;2023-05-19T01:53:25;153234.56;;;8.43;100.00
10127;BME280;13080;42.608;23.362;2023-05-19T01:55:54;153237.16;;;8.44;100.00
10127;BME280;13080;42.608;23.362;2023-05-19T01:58:29;153239.78;;;8.45;100.00
10127;BME280;13080;42.608;23.362;2023-05-19T02:01:04;153250.09;;;8.49;100.00
10127;BME280;13080;42.608;23.362;2023-05-19T02:03:44;153248.81;;;8.49;100.00
10127;BME280;13080;42.608;23.362;2023-05-19T02:06:22;153247.53;;;8.48;100.00
10127;BME280;13080;42.608;23.362;2023-05-19T02:08:56;153238.44;;;8.45;100.00
10127;BME280;13080;42.608;23.362;2023-05-19T02:11:34;153241.06;;;8.46;100.00
10127;BME280;13080;42.608;23.362;2023-05-19T02:14:04;153257.91;;;8.52;100.00
10127;BME280;13080;42.608;23.362;2023-05-19T02:16:35;153266.97;;;8.56;100.00
10127;BME280;13080;42.608;23.362;2023-05-19T02:19:04;153251.44;;;8.50;100.00
10127;BME280;13080;42.608;23.362;2023-05-19T02:21:30;153241.06;;;8.46;100.00
10127;BME280;13080;42.608;23.362;2023-05-19T02:23:57;153229.38;;;8.41;100.00
10127;BME280;13080;42.608;23.362;2023-05-19T02:26:24;153234.56;;;8.43;100.00
10127;BME280;13080;42.608;23.362;2023-05-19T02:28:51;153211.19;;;8.34;100.00
10127;BME280;13080;42.608;23.362;2023-05-19T02:31:17;153211.19;;;8.34;100.00
10127;BME280;13080;42.608;23.362;2023-05-19T02:33:44;153191.72;;;8.26;100.00
10127;BME280;13080;42.608;23.362;2023-05-19T02:36:13;153185.25;;;8.24;100.00
10127;BME280;13080;42.608;23.362;2023-05-19T02:38:39;153185.25;;;8.24;100.00
10127;BME280;13080;42.608;23.362;2023-05-19T02:41:06;153182.63;;;8.23;100.00
10127;BME280;13080;42.608;23.362;2023-05-19T02:43:33;153170.97;;;8.18;100.00
10127;BME280;13080;42.608;23.362;2023-05-19T02:45:59;153170.97;;;8.18;100.00
10127;BME280;13080;42.608;23.362;2023-05-19T02:48:26;153156.72;;;8.12;100.00
10127;BME280;13080;42.608;23.362;2023-05-19T02:50:53;153164.47;;;8.16;100.00
10127;BME280;13080;42.608;23.362;2023-05-19T02:53:21;153152.81;;;8.11;100.00
10127;BME280;13080;42.608;23.362;2023-05-19T02:55:48;153143.78;;;8.07;100.00
10127;BME280;13080;42.608;23.362;2023-05-19T02:58:14;153130.78;;;8.02;100.00
10127;BME280;13080;42.608;23.362;2023-05-19T03:00:41;153116.53;;;7.97;100.00
10127;BME280;13080;42.608;23.362;2023-05-19T03:03:09;153119.13;;;7.98;100.00
10127;BME280;13080;42.608;23.362;2023-05-19T03:05:36;153113.94;;;7.96;100.00
10127;BME280;13080;42.608;23.362;2023-05-19T03:08:03;153106.16;;;7.93;100.00
10127;BME280;13080;42.608;23.362;2023-05-19T03:10:31;153110.06;;;7.94;100.00
10127;BME280;13080;42.608;23.362;2023-05-19T03:12:58;153106.16;;;7.93;100.00
10127;BME280;13080;42.608;23.362;2023-05-19T03:15:25;153111.34;;;7.95;100.00
10127;BME280;13080;42.608;23.362;2023-05-19T03:17:52;153112.63;;;7.95;100.00
10127;BME280;13080;42.608;23.362;2023-05-19T03:20:19;153106.16;;;7.93;100.00
10127;BME280;13080;42.608;23.362;2023-05-19T03:22:45;153110.06;;;7.94;100.00
10127;BME280;13080;42.608;23.362;2023-05-19T03:25:12;153123.03;;;7.99;100.00
10127;BME280;13080;42.608;23.362;2023-05-19T03:27:40;153128.22;;;8.01;100.00
10127;BME280;13080;42.608;23.362;2023-05-19T03:30:08;153128.22;;;8.01;100.00
10127;BME280;13080;42.608;23.362;2023-05-19T03:32:35;153142.44;;;8.07;100.00
10127;BME280;13080;42.608;23.362;2023-05-19T03:35:03;153142.44;;;8.07;100.00
10127;BME280;13080;42.608;23.362;2023-05-19T03:37:30;153148.97;;;8.09;100.00
10127;BME280;13080;42.608;23.362;2023-05-19T03:39:57;153150.25;;;8.10;100.00
10127;BME280;13080;42.608;23.362;2023-05-19T03:42:23;153160.63;;;8.14;100.00
10127;BME280;13080;42.608;23.362;2023-05-19T03:44:51;153164.47;;;8.16;100.00
10127;BME280;13080;42.608;23.362;2023-05-19T03:47:18;153193.00;;;8.27;100.00
10127;BME280;13080;42.608;23.362;2023-05-19T03:49:45;153215.06;;;8.36;100.00
10127;BME280;13080;42.608;23.362;2023-05-19T03:52:12;153239.78;;;8.45;100.00
10127;BME280;13080;42.608;23.362;2023-05-19T03:54:40;153256.63;;;8.52;100.00
10127;BME280;13080;42.608;23.362;2023-05-19T03:57:07;153278.63;;;8.61;100.00
10127;BME280;13080;42.608;23.362;2023-05-19T03:59:35;153304.59;;;8.71;100.00
10127;BME280;13080;42.608;23.362;2023-05-19T04:02:04;153339.59;;;8.85;100.00
10127;BME280;13080;42.608;23.362;2023-05-19T04:04:30;153348.69;;;8.88;100.00
10127;BME280;13080;42.608;23.362;2023-05-19T04:06:57;153362.94;;;8.94;100.00
10127;BME280;13080;42.608;23.362;2023-05-19T04:09:24;153379.81;;;9.01;100.00
10127;BME280;13080;42.608;23.362;2023-05-19T04:11:50;153407.06;;;9.11;100.00
10127;BME280;13080;42.608;23.362;2023-05-19T04:14:17;153418.72;;;9.16;100.00
10127;BME280;13080;42.608;23.362;2023-05-19T04:16:47;153440.78;;;9.25;100.00
10127;BME280;13080;42.608;23.362;2023-05-19T04:19:16;153470.63;;;9.36;100.00
10127;BME280;13080;42.608;23.362;2023-05-19T04:21:43;153491.41;;;9.45;100.00
10127;BME280;13080;42.608;23.362;2023-05-19T04:24:09;153513.47;;;9.53;100.00
10127;BME280;13080;42.608;23.362;2023-05-19T04:26:36;153529.06;;;9.60;100.00
10127;BME280;13080;42.608;23.362;2023-05-19T04:29:06;153554.97;;;9.70;100.00
10127;BME280;13080;42.608;23.362;2023-05-19T04:31:33;153574.47;;;9.77;100.00
10127;BME280;13080;42.608;23.362;2023-05-19T04:34:00;153596.50;;;9.86;100.00
10127;BME280;13080;42.608;23.362;2023-05-19T04:36:29;153619.91;;;9.95;100.00
10127;BME280;13080;42.608;23.362;2023-05-19T04:38:55;153630.25;;;9.99;100.00
10127;BME280;13080;42.608;23.362;2023-05-19T04:41:26;153641.94;;;10.04;100.00
10127;BME280;13080;42.608;23.362;2023-05-19T04:43:53;153636.75;;;10.02;100.00
10127;BME280;13080;42.608;23.362;2023-05-19T04:46:21;153673.13;;;10.16;100.00
10127;BME280;13080;42.608;23.362;2023-05-19T04:48:48;153735.50;;;10.41;100.00
10127;BME280;13080;42.608;23.362;2023-05-19T04:51:15;153793.94;;;10.64;100.00
10127;BME280;13080;42.608;23.362;2023-05-19T04:53:44;153814.72;;;10.72;100.00
10127;BME280;13080;42.608;23.362;2023-05-19T04:56:11;153770.56;;;10.55;100.00
10127;BME280;13080;42.608;23.362;2023-05-19T04:58:39;153751.09;;;10.47;100.00
10127;BME280;13080;42.608;23.362;2023-05-19T05:01:06;153752.38;;;10.48;100.00
10127;BME280;13080;42.608;23.362;2023-05-19T05:03:33;153778.34;;;10.58;100.00
10127;BME280;13080;42.608;23.362;2023-05-19T05:06:00;153783.53;;;10.60;100.00
10127;BME280;13080;42.608;23.362;2023-05-19T05:08:27;153801.72;;;10.67;100.00
10127;BME280;13080;42.608;23.362;2023-05-19T05:10:56;153840.69;;;10.82;100.00
10127;BME280;13080;42.608;23.362;2023-05-19T05:13:24;153853.72;;;10.88;100.00
10127;BME280;13080;42.608;23.362;2023-05-19T05:15:52;153886.16;;;11.00;100.00
10127;BME280;13080;42.608;23.362;2023-05-19T05:18:19;153916.06;;;11.12;100.00
10127;BME280;13080;42.608;23.362;2023-05-19T05:20:46;153936.84;;;11.20;100.00
10127;BME280;13080;42.608;23.362;2023-05-19T05:23:14;153966.75;;;11.32;100.00
10127;BME280;13080;42.608;23.362;2023-05-19T05:25:42;153958.94;;;11.29;100.00
10127;BME280;13080;42.608;23.362;2023-05-19T05:28:10;153978.44;;;11.37;100.00
10127;BME280;13080;42.608;23.362;2023-05-19T05:30:37;154033.00;;;11.58;100.00
10127;BME280;13080;42.608;23.362;2023-05-19T05:33:05;154064.22;;;11.71;99.52
10127;BME280;13080;42.608;23.362;2023-05-19T05:35:32;154081.13;;;11.77;98.80
10127;BME280;13080;42.608;23.362;2023-05-19T05:37:59;154077.22;;;11.76;99.42
10127;BME280;13080;42.608;23.362;2023-05-19T05:40:26;154107.16;;;11.88;100.00
10127;BME280;13080;42.608;23.362;2023-05-19T05:42:53;154151.38;;;12.05;100.00
10127;BME280;13080;42.608;23.362;2023-05-19T05:45:22;154192.94;;;12.21;96.86
10127;BME280;13080;42.608;23.362;2023-05-19T05:47:49;154168.25;;;12.12;96.34
10127;BME280;13080;42.608;23.362;2023-05-19T05:50:17;154134.47;;;11.98;97.22
10127;BME280;13080;42.608;23.362;2023-05-19T05:52:45;154176.06;;;12.15;99.58
10127;BME280;13080;42.608;23.362;2023-05-19T05:55:13;154185.16;;;12.18;97.68
10127;BME280;13080;42.608;23.362;2023-05-19T05:57:41;154189.09;;;12.20;96.78
10127;BME280;13080;42.608;23.362;2023-05-19T06:00:09;154178.69;;;12.16;96.58
10127;BME280;13080;42.608;23.362;2023-05-19T06:02:41;154234.59;;;12.38;95.31
10127;BME280;13080;42.608;23.362;2023-05-19T06:05:09;154260.59;;;12.48;95.67
10127;BME280;13080;42.608;23.362;2023-05-19T06:07:37;154277.50;;;12.55;91.18
10127;BME280;13080;42.608;23.362;2023-05-19T06:10:05;154286.63;;;12.58;90.27
10127;BME280;13080;42.608;23.362;2023-05-19T06:12:32;154274.91;;;12.54;90.64
10127;BME280;13080;42.608;23.362;2023-05-19T06:15:01;154308.75;;;12.67;91.03
10127;BME280;13080;42.608;23.362;2023-05-19T06:17:28;154298.31;;;12.63;92.01
10127;BME280;13080;42.608;23.362;2023-05-19T06:19:57;154311.31;;;12.68;91.24
10127;BME280;13080;42.608;23.362;2023-05-19T06:22:23;154365.97;;;12.89;94.24
10127;BME280;13080;42.608;23.362;2023-05-19T06:24:50;154402.38;;;13.04;92.37
10127;BME280;13080;42.608;23.362;2023-05-19T06:27:17;154401.09;;;13.03;91.54
10127;BME280;13080;42.608;23.362;2023-05-19T06:29:44;154406.31;;;13.05;88.04
10127;BME280;13080;42.608;23.362;2023-05-19T06:32:10;154416.72;;;13.09;86.33
10127;BME280;13080;42.608;23.362;2023-05-19T06:34:37;154419.31;;;13.10;86.64
10127;BME280;13080;42.608;23.362;2023-05-19T06:37:06;154419.31;;;13.10;88.12
10127;BME280;13080;42.608;23.362;2023-05-19T06:39:33;154500.03;;;13.42;88.60
10127;BME280;13080;42.608;23.362;2023-05-19T06:41:59;154535.16;;;13.56;84.45
10127;BME280;13080;42.608;23.362;2023-05-19T06:44:26;154552.09;;;13.63;82.67
10127;BME280;13080;42.608;23.362;2023-05-19T06:46:53;154563.81;;;13.67;80.50
10127;BME280;13080;42.608;23.362;2023-05-19T06:49:20;154554.72;;;13.64;81.37
10127;BME280;13080;42.608;23.362;2023-05-19T06:51:47;154623.72;;;13.91;81.23
10127;BME280;13080;42.608;23.362;2023-05-19T06:54:15;154582.06;;;13.75;82.91
10127;BME280;13080;42.608;23.362;2023-05-19T06:56:42;154587.28;;;13.77;81.04
10127;BME280;13080;42.608;23.362;2023-05-19T06:59:09;154585.94;;;13.76;80.38
10127;BME280;13080;42.608;23.362;2023-05-19T07:01:36;154632.84;;;13.95;80.45
10127;BME280;13080;42.608;23.362;2023-05-19T07:04:03;154675.78;;;14.11;78.36
10127;BME280;13080;42.608;23.362;2023-05-19T07:06:30;154592.44;;;13.79;78.36
10127;BME280;13080;42.608;23.362;2023-05-19T07:08:58;154600.28;;;13.82;80.65
10127;BME280;13080;42.608;23.362;2023-05-19T07:11:26;154664.06;;;14.07;79.66
10127;BME280;13080;42.608;23.362;2023-05-19T07:13:53;154690.13;;;14.17;77.33
10127;BME280;13080;42.608;23.362;2023-05-19T07:16:19;154682.28;;;14.14;77.99
10127;BME280;13080;42.608;23.362;2023-05-19T07:18:46;154694.00;;;14.19;76.96
10127;BME280;13080;42.608;23.362;2023-05-19T07:21:13;154718.78;;;14.28;79.53
10127;BME280;13080;42.608;23.362;2023-05-19T07:23:40;154743.50;;;14.38;80.47
10127;BME280;13080;42.608;23.362;2023-05-19T07:26:07;154765.66;;;14.47;76.92
10127;BME280;13080;42.608;23.362;2023-05-19T07:28:35;154819.09;;;14.68;78.15
10127;BME280;13080;42.608;23.362;2023-05-19T07:31:02;154876.41;;;14.90;76.35
10127;BME280;13080;42.608;23.362;2023-05-19T07:33:29;154838.66;;;14.75;74.04
10127;BME280;13080;42.608;23.362;2023-05-19T07:35:56;154875.13;;;14.90;76.53
10127;BME280;13080;42.608;23.362;2023-05-19T07:38:22;154898.56;;;14.99;74.72
10127;BME280;13080;42.608;23.362;2023-05-19T07:40:49;154950.69;;;15.20;75.44
10127;BME280;13080;42.608;23.362;2023-05-19T07:43:16;154989.78;;;15.35;73.03
10127;BME280;13080;42.608;23.362;2023-05-19T07:45:44;155030.19;;;15.51;71.88
10127;BME280;13080;42.608;23.362;2023-05-19T07:48:10;155041.91;;;15.55;74.43
10127;BME280;13080;42.608;23.362;2023-05-19T07:50:38;155114.97;;;15.84;71.48
10127;BME280;13080;42.608;23.362;2023-05-19T07:53:04;155163.25;;;16.03;69.88
10127;BME280;13080;42.608;23.362;2023-05-19T07:55:31;155193.22;;;16.15;70.66
10127;BME280;13080;42.608;23.362;2023-05-19T07:57:58;155208.91;;;16.21;72.90
10127;BME280;13080;42.608;23.362;2023-05-19T08:00:25;155221.91;;;16.26;73.73
10127;BME280;13080;42.608;23.362;2023-05-19T08:02:54;155171.06;;;16.06;73.97
10127;BME280;13080;42.608;23.362;2023-05-19T08:05:21;155062.78;;;15.64;69.84
10127;BME280;13080;42.608;23.362;2023-05-19T08:07:48;155095.44;;;15.76;72.46
10127;BME280;13080;42.608;23.362;2023-05-19T08:10:14;155120.22;;;15.86;71.60
10127;BME280;13080;42.608;23.362;2023-05-19T08:12:41;155116.28;;;15.85;71.26
10127;BME280;13080;42.608;23.362;2023-05-19T08:15:09;155104.53;;;15.80;72.49
10127;BME280;13080;42.608;23.362;2023-05-19T08:17:37;155128.00;;;15.89;72.56
10127;BME280;13080;42.608;23.362;2023-05-19T08:20:06;155068.00;;;15.66;71.08
10127;BME280;13080;42.608;23.362;2023-05-19T08:22:34;155038.03;;;15.54;72.00
10127;BME280;13080;42.608;23.362;2023-05-19T08:25:01;155078.44;;;15.70;72.41
10127;BME280;13080;42.608;23.362;2023-05-19T08:27:29;155139.75;;;15.94;74.72
10127;BME280;13080;42.608;23.362;2023-05-19T08:29:56;155206.25;;;16.20;73.96
10127;BME280;13080;42.608;23.362;2023-05-19T08:32:23;155275.38;;;16.47;70.91
10127;BME280;13080;42.608;23.362;2023-05-19T08:34:50;155318.44;;;16.64;70.67
10127;BME280;13080;42.608;23.362;2023-05-19T08:37:18;155400.66;;;16.96;68.77
10127;BME280;13080;42.608;23.362;2023-05-19T08:39:45;155400.66;;;16.96;71.36
10127;BME280;13080;42.608;23.362;2023-05-19T08:42:12;155438.53;;;17.11;68.85
10127;BME280;13080;42.608;23.362;2023-05-19T08:44:39;155408.47;;;16.99;68.67
10127;BME280;13080;42.608;23.362;2023-05-19T08:47:06;155383.69;;;16.90;68.56
10127;BME280;13080;42.608;23.362;2023-05-19T08:49:43;155362.81;;;16.81;67.24
10127;BME280;13080;42.608;23.362;2023-05-19T08:52:18;155353.66;;;16.78;67.36
10127;BME280;13080;42.608;23.362;2023-05-19T08:54:52;155339.28;;;16.72;67.10
10127;BME280;13080;42.608;23.362;2023-05-19T08:57:20;155344.50;;;16.74;68.76
10127;BME280;13080;42.608;23.362;2023-05-19T08:59:49;155354.94;;;16.78;69.39
10127;BME280;13080;42.608;23.362;2023-05-19T09:02:17;155362.81;;;16.81;67.55
10127;BME280;13080;42.608;23.362;2023-05-19T09:04:45;155348.44;;;16.76;67.95
10127;BME280;13080;42.608;23.362;2023-05-19T09:07:13;155391.56;;;16.93;67.54
10127;BME280;13080;42.608;23.362;2023-05-19T09:09:42;155358.94;;;16.80;67.70
10127;BME280;13080;42.608;23.362;2023-05-19T09:12:09;155323.66;;;16.66;67.65
10127;BME280;13080;42.608;23.362;2023-05-19T09:14:37;155318.44;;;16.64;69.16
10127;BME280;13080;42.608;23.362;2023-05-19T09:17:04;155330.19;;;16.69;67.90
10127;BME280;13080;42.608;23.362;2023-05-19T09:19:31;155378.47;;;16.88;72.19
10127;BME280;13080;42.608;23.362;2023-05-19T09:21:58;155443.75;;;17.13;67.99
10127;BME280;13080;42.608;23.362;2023-05-19T09:24:26;155508.97;;;17.39;69.57
10127;BME280;13080;42.608;23.362;2023-05-19T09:26:55;155528.59;;;17.47;63.86
10127;BME280;13080;42.608;23.362;2023-05-19T09:29:22;155592.53;;;17.72;66.74
10127;BME280;13080;42.608;23.362;2023-05-19T09:31:49;155565.13;;;17.61;63.59
10127;BME280;13080;42.608;23.362;2023-05-19T09:34:16;155584.69;;;17.69;66.50
10127;BME280;13080;42.608;23.362;2023-05-19T09:36:45;155635.66;;;17.89;67.26
10127;BME280;13080;42.608;23.362;2023-05-19T09:39:14;155676.13;;;18.04;66.62
10127;BME280;13080;42.608;23.362;2023-05-19T09:41:41;155745.31;;;18.32;66.23
10127;BME280;13080;42.608;23.362;2023-05-19T09:44:12;155745.31;;;18.32;62.96
10127;BME280;13080;42.608;23.362;2023-05-19T09:46:49;155689.22;;;18.10;61.36
10127;BME280;13080;42.608;23.362;2023-05-19T09:49:20;155707.47;;;18.17;67.74
10127;BME280;13080;42.608;23.362;2023-05-19T09:51:51;155733.56;;;18.27;64.42
10127;BME280;13080;42.608;23.362;2023-05-19T09:54:19;155728.34;;;18.25;67.87
10127;BME280;13080;42.608;23.362;2023-05-19T09:56:50;155780.63;;;18.45;67.74
10127;BME280;13080;42.608;23.362;2023-05-19T09:59:19;155832.88;;;18.66;63.94
10127;BME280;13080;42.608;23.362;2023-05-19T10:01:49;155864.25;;;18.78;62.95
10127;BME280;13080;42.608;23.362;2023-05-19T10:04:17;155886.47;;;18.87;61.93
10127;BME280;13080;42.608;23.362;2023-05-19T10:06:44;155928.25;;;19.03;60.31
10127;BME280;13080;42.608;23.362;2023-05-19T10:09:11;155964.88;;;19.18;65.50
10127;BME280;13080;42.608;23.362;2023-05-19T10:11:39;155990.97;;;19.28;60.74
10127;BME280;13080;42.608;23.362;2023-05-19T10:14:07;155966.16;;;19.18;59.89
10127;BME280;13080;42.608;23.362;2023-05-19T10:16:35;155987.09;;;19.26;63.89
10127;BME280;13080;42.608;23.362;2023-05-19T10:19:03;156002.72;;;19.32;64.32
10127;BME280;13080;42.608;23.362;2023-05-19T10:21:31;156022.38;;;19.40;60.32
10127;BME280;13080;42.608;23.362;2023-05-19T10:23:58;156060.28;;;19.55;60.53
10127;BME280;13080;42.608;23.362;2023-05-19T10:26:25;156072.03;;;19.60;58.31
10127;BME280;13080;42.608;23.362;2023-05-19T10:28:53;156055.06;;;19.53;56.21
10127;BME280;13080;42.608;23.362;2023-05-19T10:31:22;156043.28;;;19.48;54.61
10127;BME280;13080;42.608;23.362;2023-05-19T10:34:03;156034.13;;;19.45;59.28
10127;BME280;13080;42.608;23.362;2023-05-19T10:36:43;155984.44;;;19.25;58.06
10127;BME280;13080;42.608;23.362;2023-05-19T10:39:15;155984.44;;;19.25;54.07
10127;BME280;13080;42.608;23.362;2023-05-19T10:41:47;156011.91;;;19.36;57.14
10127;BME280;13080;42.608;23.362;2023-05-19T10:44:26;155984.44;;;19.25;53.43
10127;BME280;13080;42.608;23.362;2023-05-19T10:46:56;156031.47;;;19.44;59.28
10127;BME280;13080;42.608;23.362;2023-05-19T10:49:24;156056.34;;;19.53;52.37
10127;BME280;13080;42.608;23.362;2023-05-19T10:51:54;156023.66;;;19.41;51.93
10127;BME280;13080;42.608;23.362;2023-05-19T10:54:39;156048.47;;;19.50;56.43
10127;BME280;13080;42.608;23.362;2023-05-19T10:57:07;156072.03;;;19.60;55.23
10127;BME280;13080;42.608;23.362;2023-05-19T10:59:36;156069.41;;;19.59;50.79
10127;BME280;13080;42.608;23.362;2023-05-19T11:02:03;156082.47;;;19.64;55.71
10127;BME280;13080;42.608;23.362;2023-05-19T11:04:47;156112.63;;;19.76;56.00
10127;BME280;13080;42.608;23.362;2023-05-19T11:07:16;156153.13;;;19.91;52.46
10127;BME280;13080;42.608;23.362;2023-05-19T11:09:48;156126.97;;;19.81;53.75
10127;BME280;13080;42.608;23.362;2023-05-19T11:12:19;156147.91;;;19.89;56.15
10127;BME280;13080;42.608;23.362;2023-05-19T11:14:46;156166.19;;;19.97;54.23
10127;BME280;13080;42.608;23.362;2023-05-19T11:17:14;156174.03;;;20.00;51.95
10127;BME280;13080;42.608;23.362;2023-05-19T11:19:53;156145.25;;;19.88;50.97
10127;BME280;13080;42.608;23.362;2023-05-19T11:22:22;156206.72;;;20.12;54.64
10127;BME280;13080;42.608;23.362;2023-05-19T11:24:50;156242.03;;;20.26;49.95
10127;BME280;13080;42.608;23.362;2023-05-19T11:27:25;156300.91;;;20.49;51.23
10127;BME280;13080;42.608;23.362;2023-05-19T11:29:53;156323.16;;;20.58;48.66
10127;BME280;13080;42.608;23.362;2023-05-19T11:32:21;156324.50;;;20.59;48.76
10127;BME280;13080;42.608;23.362;2023-05-19T11:34:48;156317.91;;;20.56;47.88
10127;BME280;13080;42.608;23.362;2023-05-19T11:37:16;156316.56;;;20.55;52.06
10127;BME280;13080;42.608;23.362;2023-05-19T11:39:45;156296.97;;;20.48;47.85
10127;BME280;13080;42.608;23.362;2023-05-19T11:42:12;156317.91;;;20.56;53.16
10127;BME280;13080;42.608;23.362;2023-05-19T11:44:39;156324.50;;;20.59;51.61
10127;BME280;13080;42.608;23.362;2023-05-19T11:47:07;156316.56;;;20.55;52.03
10127;BME280;13080;42.608;23.362;2023-05-19T11:49:33;156153.13;;;19.91;53.68
10127;BME280;13080;42.608;23.362;2023-05-19T11:52:00;155926.94;;;19.03;56.79
10127;BME280;13080;42.608;23.362;2023-05-19T11:54:30;155626.53;;;17.85;61.75
10127;BME280;13080;42.608;23.362;2023-05-19T11:56:59;155418.94;;;17.03;71.54
10127;BME280;13080;42.608;23.362;2023-05-19T11:59:30;155267.56;;;16.44;74.32
10127;BME280;13080;42.608;23.362;2023-05-19T12:02:00;155177.56;;;16.09;76.50
10127;BME280;13080;42.608;23.362;2023-05-19T12:04:28;155086.31;;;15.73;79.66
10127;BME280;13080;42.608;23.362;2023-05-19T12:06:55;155052.34;;;15.59;89.35
10127;BME280;13080;42.608;23.362;2023-05-19T12:09:22;154992.41;;;15.36;88.86
10127;BME280;13080;42.608;23.362;2023-05-19T12:11:51;154945.47;;;15.17;94.45
10127;BME280;13080;42.608;23.362;2023-05-19T12:14:18;154867.31;;;14.87;85.87
10127;BME280;13080;42.608;23.362;2023-05-19T12:16:45;154786.50;;;14.55;91.76
10127;BME280;13080;42.608;23.362;2023-05-19T12:19:11;154687.50;;;14.16;92.51
10127;BME280;13080;42.608;23.362;2023-05-19T12:21:38;154593.78;;;13.79;94.44
10127;BME280;13080;42.608;23.362;2023-05-19T12:24:05;154557.28;;;13.65;95.39
10127;BME280;13080;42.608;23.362;2023-05-19T12:26:34;154532.59;;;13.55;93.98
10127;BME280;13080;42.608;23.362;2023-05-19T12:29:03;154520.88;;;13.50;96.70
10127;BME280;13080;42.608;23.362;2023-05-19T12:31:31;154476.59;;;13.33;94.88
10127;BME280;13080;42.608;23.362;2023-05-19T12:33:58;154467.47;;;13.29;94.47
10127;BME280;13080;42.608;23.362;2023-05-19T12:36:25;154484.41;;;13.36;95.23
10127;BME280;13080;42.608;23.362;2023-05-19T12:38:53;154532.59;;;13.55;95.04
10127;BME280;13080;42.608;23.362;2023-05-19T12:41:20;154600.28;;;13.82;94.12
10127;BME280;13080;42.608;23.362;2023-05-19T12:43:47;154639.34;;;13.97;91.76
10127;BME280;13080;42.608;23.362;2023-05-19T12:46:18;154683.59;;;14.14;94.20
10127;BME280;13080;42.608;23.362;2023-05-19T12:48:45;154791.72;;;14.57;89.89
10127;BME280;13080;42.608;23.362;2023-05-19T12:51:17;154812.59;;;14.65;88.91